createdAt,value
2022-10-10T00:01:19.634Z,87.08
2022-10-10T00:06:23.401Z,86.96
2022-10-10T00:11:27.667Z,87.46
2022-10-10T00:16:30.599Z,87.11
2022-10-10T00:21:33.534Z,87.09
2022-10-10T00:26:37.865Z,87.18
2022-10-10T00:31:41.003Z,88.01
2022-10-10T00:36:43.951Z,87.55
2022-10-10T00:41:48.246Z,87.49
2022-10-10T00:46:51.190Z,87.82
2022-10-10T00:51:58.279Z,87.58
2022-10-10T00:57:06.743Z,88.15
2022-10-10T01:02:10.137Z,88.04
2022-10-10T01:07:16.300Z,89.05
2022-10-10T01:12:28.141Z,88.88
2022-10-10T01:17:36.092Z,88.54
2022-10-10T01:22:47.552Z,88.50
2022-10-10T01:27:55.090Z,88.86
2022-10-10T01:33:07.945Z,89.13
2022-10-10T01:38:22.155Z,89.12
2022-10-10T01:43:26.077Z,88.68
2022-10-10T01:48:32.792Z,88.81
2022-10-10T01:53:44.677Z,88.73
2022-10-10T01:59:12.567Z,89.46
2022-10-10T02:04:21.920Z,89.46
2022-10-10T02:09:33.078Z,89.95
2022-10-10T02:14:41.834Z,89.39
2022-10-10T02:19:49.752Z,89.99
2022-10-10T02:24:53.961Z,90.72
2022-10-10T02:30:00.038Z,90.63
2022-10-10T02:35:10.321Z,90.97
2022-10-10T02:40:18.372Z,90.80
2022-10-10T02:45:22.912Z,90.85
2022-10-10T02:50:28.851Z,90.80
2022-10-10T02:55:32.008Z,91.65
2022-10-10T03:00:34.971Z,92.17
2022-10-10T03:05:39.289Z,91.68
2022-10-10T03:10:42.190Z,91.45
2022-10-10T03:15:45.055Z,91.65
2022-10-10T03:20:52.924Z,91.95
2022-10-10T03:25:56.008Z,93.49
2022-10-10T03:30:59.055Z,93.79
2022-10-10T03:36:04.209Z,93.78
2022-10-10T03:41:07.864Z,94.53
2022-10-10T03:46:15.807Z,95.15
2022-10-10T03:51:21.644Z,94.87
2022-10-10T03:56:24.601Z,95.11
2022-10-10T04:01:27.866Z,94.97
2022-10-10T04:06:32.335Z,94.56
2022-10-10T04:11:37.034Z,95.37
2022-10-10T04:16:39.942Z,94.18
2022-10-10T04:21:44.217Z,94.37
2022-10-10T04:26:47.182Z,94.64
2022-10-10T04:31:50.112Z,94.96
2022-10-10T04:36:54.318Z,95.81
2022-10-10T04:41:57.256Z,95.31
2022-10-10T04:47:00.168Z,94.78
2022-10-10T04:52:04.534Z,95.07
2022-10-10T04:57:07.441Z,95.04
2022-10-10T05:02:10.711Z,95.21
2022-10-10T05:07:15.067Z,95.09
2022-10-10T05:12:18.156Z,95.07
2022-10-10T05:17:21.586Z,95.10
2022-10-10T05:22:27.437Z,94.79
2022-10-10T05:27:30.847Z,95.05
2022-10-10T05:32:33.737Z,95.95
2022-10-10T05:37:38.213Z,95.48
2022-10-10T05:42:41.136Z,96.59
2022-10-10T05:47:44.266Z,97.08
2022-10-10T05:52:48.835Z,96.17
2022-10-10T05:57:52.548Z,95.99
2022-10-10T06:02:58.341Z,96.34
2022-10-10T06:08:09.304Z,95.34
2022-10-10T06:13:21.617Z,96.19
2022-10-10T06:18:26.648Z,95.96
2022-10-10T06:23:31.092Z,96.22
2022-10-10T06:28:35.233Z,96.55
2022-10-10T06:33:38.279Z,96.82
2022-10-10T06:38:44.304Z,98.04
2022-10-10T06:43:49.188Z,97.27
2022-10-10T06:48:52.247Z,97.45
2022-10-10T06:53:59.085Z,97.89
2022-10-10T06:59:01.986Z,98.32
2022-10-10T07:04:05.894Z,98.29
2022-10-10T07:09:11.107Z,97.63
2022-10-10T07:14:14.271Z,98.93
2022-10-10T07:19:19.351Z,100.00
2022-10-10T07:24:23.979Z,98.03
2022-10-10T07:29:28.250Z,98.94
2022-10-10T07:34:31.742Z,97.25
2022-10-10T07:39:36.932Z,99.01
2022-10-10T07:44:39.847Z,98.19
2022-10-10T07:49:43.044Z,97.71
2022-10-10T07:54:47.303Z,97.05
2022-10-10T07:59:50.262Z,99.77
2022-10-10T08:04:53.171Z,98.42
2022-10-10T08:09:57.424Z,99.46
2022-10-10T08:15:00.872Z,99.56
2022-10-10T08:20:04.717Z,98.93
2022-10-10T08:25:09.986Z,96.87
2022-10-10T08:30:14.050Z,98.55
2022-10-10T08:35:17.077Z,98.25
2022-10-10T08:40:23.838Z,100.00
2022-10-10T08:45:28.888Z,99.13
2022-10-10T08:50:35.353Z,96.25
2022-10-10T08:55:43.912Z,98.09
2022-10-10T09:00:49.446Z,96.84
2022-10-10T09:06:07.215Z,96.38
2022-10-10T09:11:21.889Z,98.86
2022-10-10T09:16:38.112Z,98.36
2022-10-10T09:21:42.820Z,95.39
2022-10-10T09:26:51.148Z,94.03
2022-10-10T09:31:59.142Z,95.48
2022-10-10T09:37:03.842Z,94.82
2022-10-10T09:42:13.570Z,94.39
2022-10-10T09:47:18.304Z,94.62
2022-10-10T09:52:26.827Z,95.17
2022-10-10T09:57:36.644Z,93.46
2022-10-10T10:02:39.632Z,92.20
2022-10-10T10:07:49.357Z,90.35
2022-10-10T10:12:55.597Z,90.11
2022-10-10T10:18:15.660Z,91.04
2022-10-10T10:23:25.209Z,89.60
2022-10-10T10:28:29.943Z,91.23
2022-10-10T10:33:42.145Z,91.47
2022-10-10T10:38:51.205Z,90.30
2022-10-10T10:44:15.690Z,88.70
2022-10-10T10:49:25.624Z,88.29
2022-10-10T10:54:42.394Z,88.07
2022-10-10T11:00:33.174Z,88.35
2022-10-10T11:05:41.700Z,88.70
2022-10-10T11:11:00.059Z,88.32
2022-10-10T11:16:24.387Z,88.89
2022-10-10T11:21:39.018Z,89.85
2022-10-10T11:26:45.855Z,88.83
2022-10-10T11:31:56.904Z,88.35
2022-10-10T11:37:06.654Z,88.88
2022-10-10T11:42:18.469Z,89.31
2022-10-10T11:47:29.009Z,89.68
2022-10-10T11:52:38.491Z,89.17
2022-10-10T11:57:46.966Z,89.26
2022-10-10T12:02:57.829Z,89.88
2022-10-10T12:08:08.472Z,91.32
2022-10-10T12:13:27.205Z,94.71
2022-10-10T12:18:39.166Z,93.82
2022-10-10T12:29:07.143Z,96.77
2022-10-10T12:34:37.648Z,97.42
2022-10-10T12:40:03.179Z,98.05
2022-10-10T12:45:56.497Z,98.23
2022-10-10T12:51:01.467Z,98.36
2022-10-10T12:56:06.562Z,99.01
2022-10-10T13:01:25.083Z,99.74
2022-10-10T13:06:35.693Z,100.00
2022-10-10T13:12:01.537Z,100.00
2022-10-10T13:17:04.590Z,100.00
2022-10-10T13:22:09.083Z,100.00
2022-10-10T13:27:18.472Z,100.00
2022-10-10T13:32:23.604Z,100.00
2022-10-10T13:37:27.232Z,100.00
2022-10-10T13:42:35.464Z,100.00
2022-10-10T13:47:50.428Z,100.00
2022-10-10T13:53:24.276Z,100.00
2022-10-10T13:58:31.036Z,100.00
2022-10-10T14:03:35.417Z,100.00
2022-10-10T14:08:38.355Z,100.00
2022-10-10T14:13:49.128Z,100.00
2022-10-10T14:18:52.397Z,100.00
2022-10-10T14:23:55.522Z,100.00
2022-10-10T14:28:59.816Z,100.00
2022-10-10T14:34:02.734Z,100.00
2022-10-10T14:39:05.641Z,100.00
2022-10-10T14:44:10.361Z,100.00
2022-10-10T14:49:19.629Z,100.00
2022-10-10T14:54:22.655Z,100.00
2022-10-10T14:59:48.451Z,100.00
2022-10-10T15:04:50.406Z,100.00
2022-10-10T15:15:18.402Z,100.00
2022-10-10T15:20:25.514Z,100.00
2022-10-10T15:25:33.405Z,100.00
2022-10-10T15:30:42.897Z,100.00
2022-10-10T15:36:07.964Z,100.00
2022-10-10T15:41:11.461Z,100.00
2022-10-10T15:46:15.817Z,100.00
2022-10-10T15:51:19.318Z,100.00
2022-10-10T15:56:22.251Z,100.00
2022-10-10T16:01:27.605Z,100.00
2022-10-10T16:06:31.152Z,99.71
2022-10-10T16:11:36.600Z,96.79
2022-10-10T16:16:41.064Z,97.93
2022-10-10T16:21:43.960Z,97.68
2022-10-10T16:26:46.865Z,99.46
2022-10-10T16:31:51.141Z,99.14
2022-10-10T16:36:54.011Z,100.00
2022-10-10T16:41:56.872Z,99.06
2022-10-10T16:47:01.227Z,98.72
2022-10-10T16:52:04.147Z,100.00
2022-10-10T16:57:07.048Z,100.00
2022-10-10T17:02:13.092Z,100.00
2022-10-10T17:07:15.999Z,100.00
2022-10-10T17:12:19.508Z,100.00
2022-10-10T17:17:23.869Z,100.00
2022-10-10T17:22:26.839Z,100.00
2022-10-10T17:27:31.182Z,100.00
2022-10-10T17:32:35.456Z,100.00
2022-10-10T17:37:39.043Z,100.00
2022-10-10T17:42:41.922Z,100.00
2022-10-10T17:47:46.169Z,100.00
2022-10-10T17:52:49.065Z,100.00
2022-10-10T17:57:51.976Z,100.00
2022-10-10T18:02:56.388Z,100.00
2022-10-10T18:07:59.325Z,100.00
2022-10-10T18:13:03.678Z,100.00
2022-10-10T18:18:08.230Z,100.00
2022-10-10T18:23:11.975Z,100.00
2022-10-10T18:28:18.463Z,100.00
2022-10-10T18:33:22.772Z,100.00
2022-10-10T18:38:25.739Z,100.00
2022-10-10T18:43:28.674Z,100.00
2022-10-10T18:48:34.096Z,100.00
2022-10-10T18:53:38.246Z,100.00
2022-10-10T18:58:41.666Z,100.00
2022-10-10T19:03:45.975Z,100.00
2022-10-10T19:08:49.662Z,100.00
2022-10-10T19:13:53.289Z,100.00
2022-10-10T19:19:00.152Z,100.00
2022-10-10T19:24:04.439Z,100.00
2022-10-10T19:29:08.920Z,100.00
2022-10-10T19:34:13.437Z,100.00
2022-10-10T19:39:16.444Z,100.00
2022-10-10T19:44:20.872Z,100.00
2022-10-10T19:49:25.107Z,100.00
2022-10-10T19:54:28.059Z,100.00
2022-10-10T19:59:31.390Z,100.00
2022-10-10T20:04:35.904Z,100.00
2022-10-10T20:09:38.828Z,100.00
2022-10-10T20:14:41.721Z,100.00
2022-10-10T20:19:46.156Z,100.00
2022-10-10T20:24:49.143Z,100.00
2022-10-10T20:29:52.166Z,100.00
2022-10-10T20:34:56.551Z,100.00
2022-10-10T20:39:59.462Z,100.00
2022-10-10T20:45:02.381Z,100.00
2022-10-10T20:50:07.839Z,100.00
2022-10-10T20:55:11.364Z,100.00
2022-10-10T21:00:15.849Z,100.00
2022-10-10T21:05:20.191Z,100.00
2022-10-10T21:10:23.103Z,100.00
2022-10-10T21:15:26.035Z,100.00
2022-10-10T21:20:30.369Z,100.00
2022-10-10T21:25:33.614Z,100.00
2022-10-10T21:30:36.565Z,100.00
2022-10-10T21:35:41.251Z,100.00
2022-10-10T21:40:44.851Z,100.00
2022-10-10T21:45:47.758Z,100.00
2022-10-10T21:50:58.523Z,100.00
2022-10-10T21:56:06.575Z,100.00
2022-10-10T22:01:10.667Z,100.00
2022-10-10T22:06:17.410Z,100.00
2022-10-10T22:11:22.055Z,100.00
2022-10-10T22:16:24.990Z,100.00
2022-10-10T22:21:32.198Z,100.00
2022-10-10T22:26:36.039Z,100.00
2022-10-10T22:31:38.954Z,100.00
2022-10-10T22:36:43.262Z,100.00
2022-10-10T22:41:46.288Z,100.00
2022-10-10T22:46:49.174Z,100.00
2022-10-10T22:51:53.467Z,100.00
2022-10-10T22:56:56.465Z,100.00
2022-10-10T23:01:59.454Z,100.00
2022-10-10T23:07:06.307Z,100.00
2022-10-10T23:12:09.570Z,100.00
2022-10-10T23:17:12.549Z,100.00
2022-10-10T23:22:16.951Z,100.00
2022-10-10T23:27:19.840Z,100.00
2022-10-10T23:32:26.783Z,100.00
2022-10-10T23:37:31.111Z,100.00
2022-10-10T23:42:34.206Z,100.00
2022-10-10T23:47:37.162Z,100.00
2022-10-10T23:52:41.627Z,100.00
2022-10-10T23:57:44.503Z,100.00
